-> Other stations

1455

Speed(max): 3.8(5.9)knots
Direction:272° ( W)
Temperature: 14.7°C
Arrived: 2026-05-02 21:27:46 CEST

Past data:
hh:mmknots
Dir (°)
°C
21:25 4.3 5.4 W(270) 14.7
21:23 3.8 4.9 W(266) 14.7
21:21 3.8 5.4 W(266) 14.8
21:19 3.8 4.9 W(264) 14.7
21:17 3.8 4.9 W(262) 14.8
21:15 3.2 4.3 WSW(254) 14.7
21:13 3.8 4.9 WSW(245) 14.8
21:11 4.3 5.4 WSW(243) 14.8
21:09 3.8 5.4 WSW(239) 14.7
21:07 4.3 5.4 SW(235) 14.7
21:05 4.3 5.9 SW(226) 14.7
21:03 4.3 5.4 SW(215) 14.7
21:01 3.8 5.4 SW(227) 14.6
20:59 3.2 4.3 SW(234) 14.6
15 min. averages:
hh:mmknots
Dir (°)
°C
21:15 4.3 5.9 SW(233) 14.7
21:00 2.7 4.9 WSW(253) 14.6
20:45 2.2 4.3 W(272) 15.2
20:30 3.8 7.6 WSW(254) 15.8
20:15 4.3 7 WSW(254) 16.3
20:00 3.8 5.9 WSW(252) 17.1
19:45 3.2 7 WSW(247) 18.2
19:30 4.9 8.6 WSW(257) 19.1
19:15 6.5 11.3 W(268) 19.6
19:00 7.6 12.4 W(276) 20.1
18:45 8.6 12.4 W(275) 20.5
18:30 9.7 15.7 W(272) 20.7
18:15 10.3 17.3 WNW(282) 20.9
18:00 10.3 15.7 W(270) 21.2
17:45 10.8 16.7 W(274) 21.4
Stations at HR:
1455
-> Other regions

Desktop view
Data provided by Holfuy.
© Holfuy Weather 2026